Terminal Aerodrome Forecast
Issued by NWS

Home | Current Version | Previous Version | Text Only | Print | Product List | Glossary On
Versions: 1 2 3 4 5 6 7 8 9 10 11 12 13 14
000
FTUS45 KRIW 111700
TAFCOD
TAF
KCOD 111730Z 1118/1218 36012G22KT P6SM FEW022 BKN110
     FM111900 03009KT P6SM VCTS SCT070CB BKN100
     FM120300 30007KT P6SM SCT110 BKN150
      AMD LTD TO CLD VIS AND WIND=

USA.gov is the U.S. government's official web portal to all federal, state and local government web resources and services.